Terminal Aerodrome Forecast
Issued by NWS Wakefield, VA

Home | Current Version | Previous Version | Text Only | Print | Product List | Glossary On
Versions: 1 2 3 4 5 6 7 8 9 10 11 12 13 14 15 16 17
000
FTUS41 KAKQ 210500
TAFRIC
TAF
KRIC 210539Z 2106/2206 21004KT P6SM BKN120
     FM211500 27007KT P6SM SCT100 BKN200
     FM212000 29006KT P6SM BKN100
     FM220000 33005KT P6SM BKN050=

USA.gov is the U.S. government's official web portal to all federal, state and local government web resources and services.